Time;durP1;ratioP1;P1;durP2;ratioP2;P2;SDS_P1;SDS_P2;PMS_P1;PMS_P2;Temp;Humidity;BMP_temperature;BMP_pressure;BME280_temperature;BME280_humidity;BME280_pressure;Samples;Min_cycle;Max_cycle;Signal;HPM_P1;HPM_P2
2020/12/29 00:01:56;;;;;;;;;;;;;;;;;;4992580;28;19925;-69
2020/12/29 00:04:25;;;;;;;;;;;;;;;;;;4994398;28;19979;-68
2020/12/29 00:06:51;;;;;;;;;;;;;;;;;;4991954;28;19926;-66
2020/12/29 00:09:18;;;;;;;;;;;;;;;;;;4991982;28;19984;-68
2020/12/29 00:11:44;;;;;;;;;;;;;;;;;;4992577;28;19930;-68
2020/12/29 00:14:11;;;;;;;;;;;;;;;;;;4992524;28;20028;-68
2020/12/29 00:16:37;;;;;;;;;;;;;;;;;;4992310;28;19926;-68
2020/12/29 00:19:04;;;;;;;;;;;;;;;;;;4990465;28;20395;-68
2020/12/29 00:21:30;;;;;;;;;;;;;;;;;;4994752;28;19933;-72
2020/12/29 00:23:57;;;;;;;;;;;;;;;;;;4993806;28;20342;-68
2020/12/29 00:26:23;;;;;;;;;;;;;;;;;;4990989;28;19979;-68
2020/12/29 00:28:50;;;;;;;;;;;;;;;;;;4996344;28;20012;-68
2020/12/29 00:31:16;;;;;;;;;;;;;;;;;;4996725;28;20315;-68
2020/12/29 00:33:43;;;;;;;;;;;;;;;;;;4993245;28;19926;-68
2020/12/29 00:36:09;;;;;;;;;;;;;;;;;;4990826;28;19973;-69
2020/12/29 00:38:36;;;;;;;;;;;;;;;;;;4995316;28;19926;-68
2020/12/29 00:41:02;;;;;;;;;;;;;;;;;;4992142;28;19925;-67
2020/12/29 00:43:29;;;;;;;;;;;;;;;;;;4988420;28;20311;-68
2020/12/29 00:45:55;;;;;;;;;;;;;;;;;;4990251;28;19926;-67
2020/12/29 00:48:22;;;;;;;;;;;;;;;;;;4993242;28;20381;-67
2020/12/29 00:50:48;;;;;;;;;;;;;;;;;;4990295;28;19945;-67
2020/12/29 00:53:15;;;;;;;;;;;;;;;;;;4996177;28;20018;-67
2020/12/29 00:55:41;;;;;;;;;;;;;;;;;;4996994;28;20016;-67
2020/12/29 00:58:08;;;;;;;;;;;;;;;;;;4995121;28;19991;-68
2020/12/29 01:00:34;;;;;;;;;;;;;;;;;;4997190;28;20029;-66
2020/12/29 01:03:01;;;;;;;;;;;;;;;;;;4996913;28;19932;-66
2020/12/29 01:05:27;;;;;;;;;;;;;;;;;;4993472;28;20395;-67
2020/12/29 01:07:54;;;;;;;;;;;;;;;;;;4995364;28;19929;-68
2020/12/29 01:10:20;;;;;;;;;;;;;;;;;;4995158;28;20450;-68
2020/12/29 01:12:47;;;;;;;;;;;;;;;;;;4990723;28;20240;-68
2020/12/29 01:15:13;;;;;;;;;;;;;;;;;;4995670;28;19925;-70
2020/12/29 01:17:40;;;;;;;;;;;;;;;;;;4996556;28;19926;-69
2020/12/29 01:20:06;;;;;;;;;;;;;;;;;;4996964;28;19926;-68
2020/12/29 01:22:33;;;;;;;;;;;;;;;;;;4994333;28;20433;-67
2020/12/29 01:24:59;;;;;;;;;;;;;;;;;;4995523;28;20477;-67
2020/12/29 01:27:26;;;;;;;;;;;;;;;;;;4995923;28;19932;-67
2020/12/29 01:29:52;;;;;;;;;;;;;;;;;;4997782;28;20061;-67
2020/12/29 01:32:18;;;;;;;;;;;;;;;;;;4994630;28;20396;-67
2020/12/29 01:34:45;;;;;;;;;;;;;;;;;;4995814;28;19925;-67
2020/12/29 01:37:12;;;;;;;;;;;;;;;;;;4994811;28;19936;-69
2020/12/29 01:39:38;;;;;;;;;;;;;;;;;;4998521;28;19969;-67
2020/12/29 01:42:04;;;;;;;;;;;;;;;;;;5002655;28;19930;-67
2020/12/29 01:44:31;;;;;;;;;;;;;;;;;;5000238;28;19932;-67
2020/12/29 01:46:58;;;;;;;;;;;;;;;;;;4997135;28;20497;-67
2020/12/29 01:49:24;;;;;;;;;;;;;;;;;;4994731;28;20276;-66
2020/12/29 01:51:51;;;;;;;;;;;;;;;;;;4997227;28;19932;-67
2020/12/29 01:54:17;;;;;;;;;;;;;;;;;;5002084;28;19936;-66
2020/12/29 01:56:44;;;;;;;;;;;;;;;;;;5003550;28;20012;-67
2020/12/29 01:59:10;;;;;;;;;;;;;;;;;;5000132;28;20180;-67
2020/12/29 02:01:36;;;;;;;;;;;;;;;;;;4998657;28;19937;-66
2020/12/29 02:04:03;;;;;;;;;;;;;;;;;;4997024;28;20300;-67
2020/12/29 02:06:29;;;;;;;;;;;;;;;;;;4996583;28;20033;-67
2020/12/29 02:08:56;;;;;;;;;;;;;;;;;;4999138;28;19947;-66
2020/12/29 02:11:22;;;;;;;;;;;;;;;;;;4992455;28;19926;-67
2020/12/29 02:13:49;;;;;;;;;;;;;;;;;;4988811;28;19933;-67
2020/12/29 02:16:15;;;;;;;;;;;;;;;;;;4992096;28;20295;-67
2020/12/29 02:18:42;;;;;;;;;;;;;;;;;;4994159;28;19933;-68
2020/12/29 02:21:08;;;;;;;;;;;;;;;;;;4994433;28;19926;-67
2020/12/29 02:23:35;;;;;;;;;;;;;;;;;;4994154;28;20323;-67
2020/12/29 02:26:01;;;;;;;;;;;;;;;;;;4993895;28;19926;-67
2020/12/29 02:28:28;;;;;;;;;;;;;;;;;;4992407;28;19956;-68
2020/12/29 02:30:54;;;;;;;;;;;;;;;;;;4992073;28;19930;-67
2020/12/29 02:33:21;;;;;;;;;;;;;;;;;;4989124;28;19930;-67
2020/12/29 02:35:47;;;;;;;;;;;;;;;;;;4993369;28;19926;-67
2020/12/29 02:38:14;;;;;;;;;;;;;;;;;;4991341;28;19930;-67
2020/12/29 02:40:40;;;;;;;;;;;;;;;;;;4994088;28;20336;-67
2020/12/29 02:43:07;;;;;;;;;;;;;;;;;;4992509;28;19926;-67
2020/12/29 02:45:33;;;;;;;;;;;;;;;;;;4993317;28;20207;-67
2020/12/29 02:48:00;;;;;;;;;;;;;;;;;;4991957;28;19926;-67
2020/12/29 02:50:31;;;;;;;;;;;;;;;;;;4993539;28;19926;-66
2020/12/29 02:52:57;;;;;;;;;;;;;;;;;;4988194;28;19976;-67
2020/12/29 02:55:24;;;;;;;;;;;;;;;;;;4992669;28;20021;-66
2020/12/29 02:57:51;;;;;;;;;;;;;;;;;;4994960;28;19938;-66
2020/12/29 03:00:17;;;;;;;;;;;;;;;;;;4991405;28;19952;-66
2020/12/29 03:02:44;;;;;;;;;;;;;;;;;;4993182;28;19936;-66
2020/12/29 03:05:10;;;;;;;;;;;;;;;;;;4998998;28;19931;-65
2020/12/29 03:07:36;;;;;;;;;;;;;;;;;;4992703;28;19925;-66
2020/12/29 03:10:03;;;;;;;;;;;;;;;;;;4995655;28;19932;-66
2020/12/29 03:12:29;;;;;;;;;;;;;;;;;;4991909;28;20607;-68
2020/12/29 03:14:56;;;;;;;;;;;;;;;;;;4992218;28;20016;-68
2020/12/29 03:17:22;;;;;;;;;;;;;;;;;;4993374;28;20013;-67
2020/12/29 03:19:49;;;;;;;;;;;;;;;;;;5000235;28;20016;-66
2020/12/29 03:22:15;;;;;;;;;;;;;;;;;;4996529;28;19945;-67
2020/12/29 03:24:42;;;;;;;;;;;;;;;;;;4992162;28;20052;-67
2020/12/29 03:27:08;;;;;;;;;;;;;;;;;;4991171;28;19932;-67
2020/12/29 03:29:35;;;;;;;;;;;;;;;;;;4991784;28;19926;-66
2020/12/29 03:32:01;;;;;;;;;;;;;;;;;;4991667;28;19932;-65
2020/12/29 03:34:37;;;;;;;;;;;;;;;;;;4992319;28;20017;-66
2020/12/29 03:37:03;;;;;;;;;;;;;;;;;;4992102;28;20012;-66
2020/12/29 03:39:30;;;;;;;;;;;;;;;;;;4991114;28;19939;-66
2020/12/29 03:41:56;;;;;;;;;;;;;;;;;;4990100;28;19926;-66
2020/12/29 03:44:22;;;;;;;;;;;;;;;;;;4991282;28;20406;-68
2020/12/29 03:46:49;;;;;;;;;;;;;;;;;;4991786;28;19972;-66
2020/12/29 03:49:15;;;;;;;;;;;;;;;;;;4992792;28;19925;-68
2020/12/29 03:51:42;;;;;;;;;;;;;;;;;;4986881;28;19926;-66
2020/12/29 03:54:08;;;;;;;;;;;;;;;;;;4990922;28;19930;-67
2020/12/29 03:56:35;;;;;;;;;;;;;;;;;;4989384;28;20426;-67
2020/12/29 03:59:01;;;;;;;;;;;;;;;;;;4990930;28;19925;-67
2020/12/29 04:01:28;;;;;;;;;;;;;;;;;;4990476;28;20412;-66
2020/12/29 04:03:54;;;;;;;;;;;;;;;;;;4991999;28;19964;-66
2020/12/29 04:06:21;;;;;;;;;;;;;;;;;;4991729;28;19945;-67
2020/12/29 04:08:47;;;;;;;;;;;;;;;;;;4987093;28;20331;-67
2020/12/29 04:11:14;;;;;;;;;;;;;;;;;;4991548;28;20012;-67
2020/12/29 04:13:40;;;;;;;;;;;;;;;;;;4990903;28;20362;-66
2020/12/29 04:16:07;;;;;;;;;;;;;;;;;;4986950;28;19981;-66
2020/12/29 04:18:33;;;;;;;;;;;;;;;;;;4989673;28;19926;-66
2020/12/29 04:21:00;;;;;;;;;;;;;;;;;;4993004;28;19948;-67
2020/12/29 04:23:26;;;;;;;;;;;;;;;;;;4991331;28;19930;-66
2020/12/29 04:25:53;;;;;;;;;;;;;;;;;;4991746;28;19948;-66
2020/12/29 04:28:19;;;;;;;;;;;;;;;;;;4995511;28;19929;-67
2020/12/29 04:30:46;;;;;;;;;;;;;;;;;;4995101;28;20388;-67
2020/12/29 04:33:12;;;;;;;;;;;;;;;;;;5000625;28;20016;-66
2020/12/29 04:35:39;;;;;;;;;;;;;;;;;;4995577;28;20396;-67
2020/12/29 04:38:05;;;;;;;;;;;;;;;;;;4995749;28;19933;-66
2020/12/29 04:40:32;;;;;;;;;;;;;;;;;;4999649;28;19926;-66
2020/12/29 04:42:58;;;;;;;;;;;;;;;;;;4994989;28;19937;-67
2020/12/29 04:45:24;;;;;;;;;;;;;;;;;;4998431;28;20276;-66
2020/12/29 04:47:51;;;;;;;;;;;;;;;;;;5000175;28;19933;-67
2020/12/29 04:50:18;;;;;;;;;;;;;;;;;;4994588;28;19926;-67
2020/12/29 04:52:44;;;;;;;;;;;;;;;;;;4995758;28;20314;-66
2020/12/29 04:55:10;;;;;;;;;;;;;;;;;;4994932;28;20020;-66
2020/12/29 04:57:37;;;;;;;;;;;;;;;;;;4995098;28;19926;-68
2020/12/29 05:00:03;;;;;;;;;;;;;;;;;;5001889;28;20396;-68
2020/12/29 05:02:30;;;;;;;;;;;;;;;;;;4995225;28;19925;-66
2020/12/29 05:04:56;;;;;;;;;;;;;;;;;;4997540;28;20281;-66
2020/12/29 05:07:23;;;;;;;;;;;;;;;;;;4994179;28;19933;-66
2020/12/29 05:09:49;;;;;;;;;;;;;;;;;;5023426;23;19972;-67
2020/12/29 05:12:16;;;;;;;;;;;;;;;;;;5011061;28;20043;-67
2020/12/29 05:14:43;;;;;;;;;;;;;;;;;;5012809;28;20341;-67
2020/12/29 05:17:09;;;;;;;;;;;;;;;;;;5018044;28;19929;-67
2020/12/29 05:19:36;;;;;;;;;;;;;;;;;;5016062;28;20453;-67
2020/12/29 05:22:02;;;;;;;;;;;;;;;;;;5021323;28;19935;-68
2020/12/29 05:24:29;;;;;;;;;;;;;;;;;;5018141;28;19926;-68
2020/12/29 05:26:55;;;;;;;;;;;;;;;;;;5022439;28;19925;-67
2020/12/29 05:29:23;;;;;;;;;;;;;;;;;;5017167;28;19932;-67
2020/12/29 05:31:49;;;;;;;;;;;;;;;;;;5015694;28;19980;-67
2020/12/29 05:34:16;;;;;;;;;;;;;;;;;;5013685;28;19933;-67
2020/12/29 05:36:42;;;;;;;;;;;;;;;;;;5006772;28;19971;-68
2020/12/29 05:39:09;;;;;;;;;;;;;;;;;;5015249;28;20276;-68
2020/12/29 05:41:35;;;;;;;;;;;;;;;;;;5003892;28;19932;-67
2020/12/29 05:44:02;;;;;;;;;;;;;;;;;;5015983;28;20306;-67
2020/12/29 05:46:28;;;;;;;;;;;;;;;;;;5019269;28;19925;-67
2020/12/29 05:48:55;;;;;;;;;;;;;;;;;;5011543;28;20517;-66
2020/12/29 05:51:21;;;;;;;;;;;;;;;;;;5007410;28;19972;-68
2020/12/29 05:53:48;;;;;;;;;;;;;;;;;;5021124;28;19925;-67
2020/12/29 05:56:14;;;;;;;;;;;;;;;;;;5010720;28;20310;-66
2020/12/29 05:58:41;;;;;;;;;;;;;;;;;;5012651;28;19926;-67
2020/12/29 06:01:07;;;;;;;;;;;;;;;;;;5004444;28;19932;-68
2020/12/29 06:03:34;;;;;;;;;;;;;;;;;;5014222;28;19969;-68
2020/12/29 06:06:00;;;;;;;;;;;;;;;;;;5007514;28;19931;-68
2020/12/29 06:08:27;;;;;;;;;;;;;;;;;;5006425;28;19926;-67
2020/12/29 06:10:53;;;;;;;;;;;;;;;;;;5022762;28;20008;-65
2020/12/29 06:13:20;;;;;;;;;;;;;;;;;;5014912;28;19971;-66
2020/12/29 06:15:46;;;;;;;;;;;;;;;;;;5030309;28;20397;-66
2020/12/29 06:18:13;;;;;;;;;;;;;;;;;;5018362;28;19978;-66
2020/12/29 06:20:39;;;;;;;;;;;;;;;;;;5029022;28;19926;-67
2020/12/29 06:23:06;;;;;;;;;;;;;;;;;;5014156;28;19948;-67
2020/12/29 06:25:34;;;;;;;;;;;;;;;;;;5008848;28;19925;-68
2020/12/29 06:28:01;;;;;;;;;;;;;;;;;;5021156;28;19925;-67
2020/12/29 06:30:28;;;;;;;;;;;;;;;;;;5014012;28;19925;-67
2020/12/29 06:32:54;;;;;;;;;;;;;;;;;;5003383;28;19936;-66
2020/12/29 06:35:21;;;;;;;;;;;;;;;;;;5005171;28;20012;-67
2020/12/29 06:37:47;;;;;;;;;;;;;;;;;;5026863;28;20363;-66
2020/12/29 06:40:14;;;;;;;;;;;;;;;;;;5007678;28;20016;-66
2020/12/29 06:42:40;;;;;;;;;;;;;;;;;;5017781;28;20391;-66
2020/12/29 06:45:07;;;;;;;;;;;;;;;;;;5014914;28;20017;-67
2020/12/29 06:47:33;;;;;;;;;;;;;;;;;;5024039;28;19925;-68
2020/12/29 06:50:00;;;;;;;;;;;;;;;;;;5016077;28;19929;-67
2020/12/29 06:52:26;;;;;;;;;;;;;;;;;;4998920;28;19977;-67
2020/12/29 06:54:53;;;;;;;;;;;;;;;;;;5016954;28;19925;-67
2020/12/29 06:57:19;;;;;;;;;;;;;;;;;;5016841;28;20008;-68
2020/12/29 06:59:46;;;;;;;;;;;;;;;;;;5013675;28;19926;-67
2020/12/29 07:02:12;;;;;;;;;;;;;;;;;;5023992;28;19972;-67
2020/12/29 07:04:38;;;;;;;;;;;;;;;;;;5035824;28;19971;-67
2020/12/29 07:07:05;;;;;;;;;;;;;;;;;;5026340;28;19925;-67
2020/12/29 07:09:31;;;;;;;;;;;;;;;;;;5009644;28;19932;-67
2020/12/29 07:11:58;;;;;;;;;;;;;;;;;;5028473;28;20302;-67
2020/12/29 07:14:24;;;;;;;;;;;;;;;;;;5021263;28;19933;-68
2020/12/29 07:16:51;;;;;;;;;;;;;;;;;;5010568;28;20290;-67
2020/12/29 07:19:17;;;;;;;;;;;;;;;;;;5024769;28;19926;-68
2020/12/29 07:21:44;;;;;;;;;;;;;;;;;;5005062;28;20387;-67
2020/12/29 07:24:10;;;;;;;;;;;;;;;;;;5014562;28;19926;-66
2020/12/29 07:26:38;;;;;;;;;;;;;;;;;;5015051;28;20001;-66
2020/12/29 07:29:04;;;;;;;;;;;;;;;;;;5004617;28;20395;-68
2020/12/29 07:31:31;;;;;;;;;;;;;;;;;;5016697;28;19926;-68
2020/12/29 07:33:57;;;;;;;;;;;;;;;;;;5022000;28;20306;-67
2020/12/29 07:36:24;;;;;;;;;;;;;;;;;;5014257;28;20020;-68
2020/12/29 07:38:50;;;;;;;;;;;;;;;;;;5010242;28;19925;-68
2020/12/29 07:41:17;;;;;;;;;;;;;;;;;;5005611;28;19932;-67
2020/12/29 07:43:43;;;;;;;;;;;;;;;;;;5015448;28;19975;-67
2020/12/29 07:46:10;;;;;;;;;;;;;;;;;;5018560;28;19925;-67
2020/12/29 07:48:36;;;;;;;;;;;;;;;;;;5021415;28;19925;-68
2020/12/29 07:51:03;;;;;;;;;;;;;;;;;;5001586;28;19932;-67
2020/12/29 07:53:29;;;;;;;;;;;;;;;;;;5008827;28;19933;-68
2020/12/29 07:55:56;;;;;;;;;;;;;;;;;;5015744;28;20258;-67
2020/12/29 07:58:22;;;;;;;;;;;;;;;;;;5015520;28;19926;-67
2020/12/29 08:00:49;;;;;;;;;;;;;;;;;;5015516;28;19925;-68
2020/12/29 08:03:17;;;;;;;;;;;;;;;;;;5016258;28;19987;-66
2020/12/29 08:05:44;;;;;;;;;;;;;;;;;;5008846;28;19929;-67
2020/12/29 08:08:10;;;;;;;;;;;;;;;;;;5015484;28;19981;-67
2020/12/29 08:10:37;;;;;;;;;;;;;;;;;;5016832;28;19926;-68
2020/12/29 08:13:03;;;;;;;;;;;;;;;;;;5002982;28;19926;-67
2020/12/29 08:15:30;;;;;;;;;;;;;;;;;;5018965;28;20013;-67
2020/12/29 08:17:56;;;;;;;;;;;;;;;;;;5024444;28;19988;-67
2020/12/29 08:20:23;;;;;;;;;;;;;;;;;;5021257;28;20016;-67
2020/12/29 08:22:49;;;;;;;;;;;;;;;;;;5015340;28;20299;-67
2020/12/29 08:25:16;;;;;;;;;;;;;;;;;;5005228;28;19930;-69
2020/12/29 08:27:42;;;;;;;;;;;;;;;;;;5013422;28;20008;-68
2020/12/29 08:30:09;;;;;;;;;;;;;;;;;;5013051;28;19932;-68
2020/12/29 08:32:35;;;;;;;;;;;;;;;;;;5011705;28;20020;-65
2020/12/29 08:35:02;;;;;;;;;;;;;;;;;;5011053;28;19925;-66
2020/12/29 08:37:30;;;;;;;;;;;;;;;;;;5009680;28;19934;-66
2020/12/29 08:39:57;;;;;;;;;;;;;;;;;;5009489;28;19934;-65
2020/12/29 08:42:23;;;;;;;;;;;;;;;;;;5008081;28;19932;-66
2020/12/29 08:44:50;;;;;;;;;;;;;;;;;;5008275;28;19936;-66
2020/12/29 08:47:16;;;;;;;;;;;;;;;;;;5006351;28;20012;-65
2020/12/29 08:49:43;;;;;;;;;;;;;;;;;;5007995;28;20391;-66
2020/12/29 08:52:09;;;;;;;;;;;;;;;;;;5008845;28;19926;-67
2020/12/29 08:54:36;;;;;;;;;;;;;;;;;;5010893;28;19925;-67
2020/12/29 08:57:02;;;;;;;;;;;;;;;;;;5011098;28;19926;-69
2020/12/29 08:59:29;;;;;;;;;;;;;;;;;;5008930;28;19980;-68
2020/12/29 09:01:55;;;;;;;;;;;;;;;;;;5010563;28;20016;-68
2020/12/29 09:04:22;;;;;;;;;;;;;;;;;;5009469;28;19925;-68
2020/12/29 09:06:48;;;;;;;;;;;;;;;;;;5007637;28;19932;-66
2020/12/29 09:09:15;;;;;;;;;;;;;;;;;;5009594;28;19929;-69
2020/12/29 09:11:41;;;;;;;;;;;;;;;;;;5009930;28;20415;-68
2020/12/29 09:14:08;;;;;;;;;;;;;;;;;;5012769;28;19926;-68
2020/12/29 09:16:34;;;;;;;;;;;;;;;;;;5013454;28;19929;-67
2020/12/29 09:19:01;;;;;;;;;;;;;;;;;;5013526;28;19947;-68
2020/12/29 09:21:27;;;;;;;;;;;;;;;;;;5013367;28;19933;-68
2020/12/29 09:23:54;;;;;;;;;;;;;;;;;;5013568;28;20019;-68
2020/12/29 09:26:20;;;;;;;;;;;;;;;;;;5012600;28;20609;-67
2020/12/29 09:28:47;;;;;;;;;;;;;;;;;;5014489;28;20141;-68
2020/12/29 09:31:13;;;;;;;;;;;;;;;;;;5013154;28;20409;-68
2020/12/29 09:33:40;;;;;;;;;;;;;;;;;;5015334;28;19932;-68
2020/12/29 09:36:08;;;;;;;;;;;;;;;;;;5013429;28;19983;-68
2020/12/29 09:38:34;;;;;;;;;;;;;;;;;;5012177;28;19975;-68
2020/12/29 09:41:01;;;;;;;;;;;;;;;;;;5013440;28;20026;-68
2020/12/29 09:43:27;;;;;;;;;;;;;;;;;;5012394;28;19925;-68
2020/12/29 09:45:57;;;;;;;;;;;;;;;;;;5011977;28;19929;-68
2020/12/29 09:48:23;;;;;;;;;;;;;;;;;;5010874;28;19926;-68
2020/12/29 09:50:50;;;;;;;;;;;;;;;;;;5014026;28;19927;-68
2020/12/29 09:53:16;;;;;;;;;;;;;;;;;;5013205;28;19936;-69
2020/12/29 09:55:43;;;;;;;;;;;;;;;;;;5020291;28;20295;-69
2020/12/29 09:58:09;;;;;;;;;;;;;;;;;;5012265;28;19933;-68
2020/12/29 10:00:36;;;;;;;;;;;;;;;;;;5013025;28;20395;-68
2020/12/29 10:03:02;;;;;;;;;;;;;;;;;;5012590;28;19929;-68
2020/12/29 10:05:29;;;;;;;;;;;;;;;;;;5012899;28;20384;-68
2020/12/29 10:07:55;;;;;;;;;;;;;;;;;;5012484;28;19929;-69
2020/12/29 10:10:22;;;;;;;;;;;;;;;;;;5011154;28;20365;-68
2020/12/29 10:12:48;;;;;;;;;;;;;;;;;;5012973;28;20157;-68
2020/12/29 10:15:15;;;;;;;;;;;;;;;;;;5011852;28;19926;-68
2020/12/29 10:17:41;;;;;;;;;;;;;;;;;;5009150;28;19926;-68
2020/12/29 10:20:08;;;;;;;;;;;;;;;;;;5011807;28;19926;-68
2020/12/29 10:22:34;;;;;;;;;;;;;;;;;;5011488;28;19934;-68
2020/12/29 10:25:00;;;;;;;;;;;;;;;;;;5010904;28;19925;-68
2020/12/29 10:27:27;;;;;;;;;;;;;;;;;;5012327;28;19925;-68
2020/12/29 10:29:54;;;;;;;;;;;;;;;;;;5012754;28;19930;-67
2020/12/29 10:32:21;;;;;;;;;;;;;;;;;;5012215;28;19938;-67
2020/12/29 10:34:47;;;;;;;;;;;;;;;;;;5010634;28;19926;-68
2020/12/29 10:37:14;;;;;;;;;;;;;;;;;;5010708;28;20407;-68
2020/12/29 10:39:40;;;;;;;;;;;;;;;;;;5012169;28;20008;-67
2020/12/29 10:42:07;;;;;;;;;;;;;;;;;;5010867;28;19926;-67
2020/12/29 10:44:33;;;;;;;;;;;;;;;;;;5011296;28;19978;-68
2020/12/29 10:47:00;;;;;;;;;;;;;;;;;;5007977;28;19932;-67
2020/12/29 10:49:26;;;;;;;;;;;;;;;;;;5010828;28;19926;-67
2020/12/29 10:51:53;;;;;;;;;;;;;;;;;;5012039;28;19933;-69
2020/12/29 10:54:19;;;;;;;;;;;;;;;;;;5011148;28;20004;-68
2020/12/29 10:56:46;;;;;;;;;;;;;;;;;;5011439;28;19929;-67
2020/12/29 10:59:12;;;;;;;;;;;;;;;;;;5007881;28;20272;-67
2020/12/29 11:01:39;;;;;;;;;;;;;;;;;;5011058;28;19925;-67
2020/12/29 11:04:05;;;;;;;;;;;;;;;;;;5011573;28;19926;-67
2020/12/29 11:06:32;;;;;;;;;;;;;;;;;;5011860;28;20159;-67
2020/12/29 11:08:58;;;;;;;;;;;;;;;;;;5024834;23;19938;-66
2020/12/29 11:11:24;;;;;;;;;;;;;;;;;;5011792;28;19932;-67
2020/12/29 11:13:51;;;;;;;;;;;;;;;;;;5010760;28;20023;-66
2020/12/29 11:16:17;;;;;;;;;;;;;;;;;;5005300;28;20386;-66
2020/12/29 11:18:44;;;;;;;;;;;;;;;;;;5010498;28;20391;-66
2020/12/29 11:21:10;;;;;;;;;;;;;;;;;;5009265;28;20349;-66
2020/12/29 11:23:37;;;;;;;;;;;;;;;;;;5010940;28;20448;-66
2020/12/29 11:26:03;;;;;;;;;;;;;;;;;;5009800;28;20299;-65
2020/12/29 11:28:30;;;;;;;;;;;;;;;;;;5010155;28;19939;-66
2020/12/29 11:30:56;;;;;;;;;;;;;;;;;;5008578;28;19941;-66
2020/12/29 11:33:23;;;;;;;;;;;;;;;;;;5010922;28;19975;-67
2020/12/29 11:35:49;;;;;;;;;;;;;;;;;;5010821;28;19926;-68
2020/12/29 11:38:16;;;;;;;;;;;;;;;;;;5010211;28;19932;-68
2020/12/29 11:40:42;;;;;;;;;;;;;;;;;;5010502;28;19925;-68
2020/12/29 11:43:09;;;;;;;;;;;;;;;;;;5009682;28;20020;-67
2020/12/29 11:45:35;;;;;;;;;;;;;;;;;;5007367;28;19925;-66
2020/12/29 11:48:01;;;;;;;;;;;;;;;;;;5010456;28;19925;-67
2020/12/29 11:50:28;;;;;;;;;;;;;;;;;;5011203;28;19936;-68
2020/12/29 11:52:54;;;;;;;;;;;;;;;;;;5009566;28;19925;-68
2020/12/29 11:55:21;;;;;;;;;;;;;;;;;;5010672;28;19926;-67
2020/12/29 11:57:47;;;;;;;;;;;;;;;;;;5010487;28;19929;-66
2020/12/29 12:00:14;;;;;;;;;;;;;;;;;;5009227;28;19937;-66
2020/12/29 12:02:40;;;;;;;;;;;;;;;;;;5010305;28;19932;-66
2020/12/29 12:05:07;;;;;;;;;;;;;;;;;;5011674;28;20291;-66
2020/12/29 12:07:33;;;;;;;;;;;;;;;;;;5009921;28;19926;-67
2020/12/29 12:10:00;;;;;;;;;;;;;;;;;;5009798;28;20379;-67
2020/12/29 12:12:26;;;;;;;;;;;;;;;;;;5019230;28;19926;-65
2020/12/29 12:14:53;;;;;;;;;;;;;;;;;;5009279;28;19933;-67
2020/12/29 12:17:19;;;;;;;;;;;;;;;;;;5009831;28;20494;-68
2020/12/29 12:19:45;;;;;;;;;;;;;;;;;;5009809;28;19925;-68
2020/12/29 12:22:12;;;;;;;;;;;;;;;;;;5011482;28;20307;-67
2020/12/29 12:24:39;;;;;;;;;;;;;;;;;;5012435;28;19933;-67
2020/12/29 12:27:05;;;;;;;;;;;;;;;;;;5017119;28;20032;-67
2020/12/29 12:29:32;;;;;;;;;;;;;;;;;;5014869;28;20020;-67
2020/12/29 12:31:59;;;;;;;;;;;;;;;;;;5014028;28;19944;-68
2020/12/29 12:34:26;;;;;;;;;;;;;;;;;;5009925;28;19932;-67
2020/12/29 12:36:52;;;;;;;;;;;;;;;;;;5016781;28;20028;-65
2020/12/29 12:39:19;;;;;;;;;;;;;;;;;;5018134;28;19925;-65
2020/12/29 12:41:45;;;;;;;;;;;;;;;;;;5013857;28;19932;-66
2020/12/29 12:44:11;;;;;;;;;;;;;;;;;;5008043;28;19926;-65
2020/12/29 12:46:38;;;;;;;;;;;;;;;;;;5025480;28;19972;-66
2020/12/29 12:49:05;;;;;;;;;;;;;;;;;;5023557;28;20364;-66
2020/12/29 12:51:31;;;;;;;;;;;;;;;;;;5026023;28;19934;-67
2020/12/29 12:53:58;;;;;;;;;;;;;;;;;;5024983;28;20024;-67
2020/12/29 12:56:28;;;;;;;;;;;;;;;;;;5014621;28;20016;-67
2020/12/29 12:58:54;;;;;;;;;;;;;;;;;;5013427;28;20016;-68
2020/12/29 13:01:21;;;;;;;;;;;;;;;;;;5014528;28;19933;-68
2020/12/29 13:03:47;;;;;;;;;;;;;;;;;;5012906;28;20314;-67
2020/12/29 13:06:14;;;;;;;;;;;;;;;;;;5013412;28;20075;-65
2020/12/29 13:08:40;;;;;;;;;;;;;;;;;;5014085;28;19925;-69
2020/12/29 13:11:07;;;;;;;;;;;;;;;;;;5013667;28;19933;-66
2020/12/29 13:13:33;;;;;;;;;;;;;;;;;;5016388;28;19933;-67
2020/12/29 13:16:00;;;;;;;;;;;;;;;;;;5013173;28;19925;-66
2020/12/29 13:18:26;;;;;;;;;;;;;;;;;;5013887;28;20364;-67
2020/12/29 13:20:53;;;;;;;;;;;;;;;;;;5014380;28;19926;-67
2020/12/29 13:23:19;;;;;;;;;;;;;;;;;;5013598;28;19934;-67
2020/12/29 13:25:46;;;;;;;;;;;;;;;;;;5013662;28;19932;-66
2020/12/29 13:28:12;;;;;;;;;;;;;;;;;;5012914;28;20375;-66
2020/12/29 13:30:39;;;;;;;;;;;;;;;;;;5015043;28;19988;-67
2020/12/29 13:33:05;;;;;;;;;;;;;;;;;;5013308;28;19932;-70
2020/12/29 13:35:33;;;;;;;;;;;;;;;;;;5013223;28;19929;-65
2020/12/29 13:37:59;;;;;;;;;;;;;;;;;;5014753;28;19972;-69
2020/12/29 13:40:26;;;;;;;;;;;;;;;;;;5013597;28;20016;-67
2020/12/29 13:42:52;;;;;;;;;;;;;;;;;;5013686;28;19932;-66
2020/12/29 13:45:19;;;;;;;;;;;;;;;;;;5014214;28;19932;-66
2020/12/29 13:47:45;;;;;;;;;;;;;;;;;;5013544;28;19989;-67
2020/12/29 13:50:12;;;;;;;;;;;;;;;;;;5012052;28;19965;-67
2020/12/29 13:52:38;;;;;;;;;;;;;;;;;;5012828;28;19936;-66
2020/12/29 13:55:05;;;;;;;;;;;;;;;;;;5013488;28;20509;-68
2020/12/29 13:57:31;;;;;;;;;;;;;;;;;;5013508;28;20024;-71
2020/12/29 13:59:58;;;;;;;;;;;;;;;;;;5013416;28;19961;-65
2020/12/29 14:02:24;;;;;;;;;;;;;;;;;;5006405;28;19979;-66
2020/12/29 14:04:51;;;;;;;;;;;;;;;;;;5014212;28;19935;-66
2020/12/29 14:07:17;;;;;;;;;;;;;;;;;;5012563;28;20032;-68
2020/12/29 14:09:44;;;;;;;;;;;;;;;;;;5010699;28;20044;-69
2020/12/29 14:12:10;;;;;;;;;;;;;;;;;;5013154;28;19929;-67
2020/12/29 14:14:37;;;;;;;;;;;;;;;;;;5012693;28;19937;-66
2020/12/29 14:17:03;;;;;;;;;;;;;;;;;;5016347;28;20016;-66
2020/12/29 14:19:30;;;;;;;;;;;;;;;;;;5012908;28;20024;-67
2020/12/29 14:21:56;;;;;;;;;;;;;;;;;;5006201;28;19925;-69
2020/12/29 14:24:23;;;;;;;;;;;;;;;;;;5012089;28;19969;-68
2020/12/29 14:26:49;;;;;;;;;;;;;;;;;;5008391;28;19956;-67
2020/12/29 14:29:16;;;;;;;;;;;;;;;;;;5010955;28;20323;-66
2020/12/29 14:31:42;;;;;;;;;;;;;;;;;;5011871;28;20346;-66
2020/12/29 14:34:11;;;;;;;;;;;;;;;;;;5011166;28;19933;-69
2020/12/29 14:36:37;;;;;;;;;;;;;;;;;;5011096;28;19972;-69
2020/12/29 14:39:04;;;;;;;;;;;;;;;;;;5011819;28;20309;-66
2020/12/29 14:41:30;;;;;;;;;;;;;;;;;;5010778;28;19935;-66
2020/12/29 14:43:57;;;;;;;;;;;;;;;;;;5009999;28;19929;-67
2020/12/29 14:46:23;;;;;;;;;;;;;;;;;;5011363;28;19960;-67
2020/12/29 14:48:50;;;;;;;;;;;;;;;;;;5011567;28;19925;-67
2020/12/29 14:51:16;;;;;;;;;;;;;;;;;;5010848;28;20079;-66
2020/12/29 14:53:43;;;;;;;;;;;;;;;;;;5008235;28;19926;-67
2020/12/29 14:56:09;;;;;;;;;;;;;;;;;;5012141;28;20359;-68
2020/12/29 14:58:36;;;;;;;;;;;;;;;;;;5011493;28;19925;-68
2020/12/29 15:01:02;;;;;;;;;;;;;;;;;;5010897;28;20291;-67
2020/12/29 15:03:29;;;;;;;;;;;;;;;;;;5008958;28;20028;-66
2020/12/29 15:05:55;;;;;;;;;;;;;;;;;;5010594;28;19925;-67
2020/12/29 15:08:22;;;;;;;;;;;;;;;;;;5010385;28;20235;-68
2020/12/29 15:10:50;;;;;;;;;;;;;;;;;;5010476;28;20016;-66
2020/12/29 15:13:18;;;;;;;;;;;;;;;;;;5009666;28;19926;-67
2020/12/29 15:15:45;;;;;;;;;;;;;;;;;;5009753;28;19995;-67
2020/12/29 15:18:15;;;;;;;;;;;;;;;;;;5007677;28;20020;-66
2020/12/29 15:20:41;;;;;;;;;;;;;;;;;;5010733;28;19932;-66
2020/12/29 15:23:07;;;;;;;;;;;;;;;;;;5009481;28;19932;-67
2020/12/29 15:25:34;;;;;;;;;;;;;;;;;;5010367;28;19936;-67
2020/12/29 15:28:00;;;;;;;;;;;;;;;;;;5009885;28;19953;-67
2020/12/29 15:30:27;;;;;;;;;;;;;;;;;;5010188;28;19930;-66
2020/12/29 15:32:53;;;;;;;;;;;;;;;;;;5007928;28;20071;-67
2020/12/29 15:35:20;;;;;;;;;;;;;;;;;;5010296;28;19931;-67
2020/12/29 15:37:46;;;;;;;;;;;;;;;;;;5010277;28;20015;-67
2020/12/29 15:40:13;;;;;;;;;;;;;;;;;;5014796;28;19925;-68
2020/12/29 15:42:39;;;;;;;;;;;;;;;;;;5009209;28;19933;-66
2020/12/29 15:45:06;;;;;;;;;;;;;;;;;;5010422;28;19925;-67
2020/12/29 15:47:32;;;;;;;;;;;;;;;;;;5010885;28;20318;-66
2020/12/29 15:49:59;;;;;;;;;;;;;;;;;;5009856;28;19971;-66
2020/12/29 15:52:25;;;;;;;;;;;;;;;;;;5010478;28;19968;-67
2020/12/29 15:54:52;;;;;;;;;;;;;;;;;;5010091;28;19952;-65
2020/12/29 15:57:18;;;;;;;;;;;;;;;;;;5008169;28;19930;-68
2020/12/29 15:59:45;;;;;;;;;;;;;;;;;;5010092;28;19926;-68
2020/12/29 16:02:11;;;;;;;;;;;;;;;;;;5006119;28;19925;-68
2020/12/29 16:04:38;;;;;;;;;;;;;;;;;;5008203;28;19940;-70
2020/12/29 16:07:05;;;;;;;;;;;;;;;;;;5009151;28;19925;-68
2020/12/29 16:09:31;;;;;;;;;;;;;;;;;;5003540;28;19925;-67
2020/12/29 16:11:58;;;;;;;;;;;;;;;;;;5002987;28;20094;-67
2020/12/29 16:14:24;;;;;;;;;;;;;;;;;;5012216;28;20511;-67
2020/12/29 16:16:51;;;;;;;;;;;;;;;;;;5009016;28;19932;-67
2020/12/29 16:19:17;;;;;;;;;;;;;;;;;;5009935;28;19999;-67
2020/12/29 16:21:44;;;;;;;;;;;;;;;;;;4998266;28;19926;-70
2020/12/29 16:24:10;;;;;;;;;;;;;;;;;;5002294;28;20005;-68
2020/12/29 16:26:37;;;;;;;;;;;;;;;;;;5004481;28;19925;-67
2020/12/29 16:29:04;;;;;;;;;;;;;;;;;;5000014;28;20040;-65
2020/12/29 16:31:31;;;;;;;;;;;;;;;;;;5001022;28;19926;-67
2020/12/29 16:33:57;;;;;;;;;;;;;;;;;;5004581;28;19933;-65
2020/12/29 16:36:24;;;;;;;;;;;;;;;;;;5005835;28;20247;-66
2020/12/29 16:38:50;;;;;;;;;;;;;;;;;;5009086;28;19929;-66
2020/12/29 16:41:18;;;;;;;;;;;;;;;;;;5004549;28;19979;-66